Terminal Aerodrome Forecast
Issued by NWS Knoxville/Tri Cities, TN

Current Version | Previous Version | Text Only | Print | Product List | Glossary On
Versions: 1 2 3 4 5 6 7 8 9 10 11 12
000
FTUS44 KMRX 230520
TAFTYS
TAF
KTYS 230520Z 2306/2406 15012G18KT P6SM SCT070 BKN150
     FM230900 15013G19KT P6SM VCSH SCT050 OVC120
     FM231100 18014G21KT 4SM -SHRA BR SCT035 OVC070
     FM231500 21016G24KT 3SM SHRA BR VCTS SCT025CB OVC040
     FM231700 25016G24KT 4SM -SHRA BR SCT020 OVC050
     FM231900 25016G24KT P6SM SCT040 OVC150
     FM232100 25011G19KT P6SM BKN040
     FM240100 24008KT P6SM SKC=

USA.gov is the U.S. government's official web portal to all federal, state and local government web resources and services.